Time;durP1;ratioP1;P1;durP2;ratioP2;P2;SDS_P1;SDS_P2;PMS_P1;PMS_P2;Temp;Humidity;BMP_temperature;BMP_pressure;BME280_temperature;BME280_humidity;BME280_pressure;Samples;Min_cycle;Max_cycle;Signal;HPM_P1;HPM_P2
2023/03/02 00:00:09;;;;;;;3.53;3.13;;;;;;;11.26;63.45;94935.31;4992385;28;20208;-51
2023/03/02 00:02:39;;;;;;;3.10;2.80;;;;;;;11.26;63.28;94941.25;4991835;28;20284;-54
2023/03/02 00:05:09;;;;;;;3.50;2.83;;;;;;;11.27;63.64;94932.63;4992866;28;20248;-51
2023/03/02 00:07:38;;;;;;;3.60;2.90;;;;;;;11.27;63.60;94929.28;4990930;28;20262;-49
2023/03/02 00:10:06;;;;;;;3.20;2.90;;;;;;;11.25;63.35;94914.03;4992140;28;20219;-48
2023/03/02 00:12:34;;;;;;;3.27;2.97;;;;;;;11.29;63.36;94927.38;4991985;28;20284;-48
2023/03/02 00:15:01;;;;;;;2.60;2.40;;;;;;;11.22;63.43;94913.50;4992279;28;20204;-52
2023/03/02 00:17:27;;;;;;;2.60;2.40;;;;;;;11.28;63.31;94918.09;4992279;28;20185;-47
2023/03/02 00:19:54;;;;;;;2.73;2.53;;;;;;;11.29;63.25;94917.13;4992018;28;20204;-50
2023/03/02 00:22:21;;;;;;;4.10;2.80;;;;;;;11.30;63.46;94908.50;4992400;28;20244;-48
2023/03/02 00:24:49;;;;;;;3.77;2.80;;;;;;;11.30;63.23;94911.88;4991670;28;20231;-51
2023/03/02 00:27:16;;;;;;;3.13;2.83;;;;;;;11.29;63.28;94912.00;4992150;28;20204;-50
2023/03/02 00:29:43;;;;;;;2.40;2.20;;;;;;;11.28;63.37;94906.09;4991830;28;20197;-48
2023/03/02 00:32:16;;;;;;;3.20;2.83;;;;;;;11.28;63.18;94902.72;4990909;28;20286;-47
2023/03/02 00:34:43;;;;;;;2.53;2.33;;;;;;;11.28;63.40;94902.72;4991423;28;20204;-48
2023/03/02 00:37:10;;;;;;;2.67;2.43;;;;;;;11.28;63.30;94898.41;4992050;28;20215;-49
2023/03/02 00:39:37;;;;;;;3.17;2.87;;;;;;;11.29;63.31;94894.09;4991488;28;20239;-48
2023/03/02 00:42:05;;;;;;;2.50;2.30;;;;;;;11.30;63.12;94891.38;4991900;28;20625;-48
2023/03/02 00:44:32;;;;;;;2.50;2.30;;;;;;;11.32;63.30;94890.47;4991722;28;20220;-49
2023/03/02 00:46:59;;;;;;;2.63;2.43;;;;;;;11.33;63.38;94889.50;4991353;28;20216;-50
2023/03/02 00:49:26;;;;;;;3.10;2.53;;;;;;;11.32;63.23;94887.91;4991501;28;20193;-49
2023/03/02 00:51:52;;;;;;;2.63;2.40;;;;;;;11.28;62.99;94880.50;4991459;28;20193;-49
2023/03/02 00:54:19;;;;;;;2.50;2.30;;;;;;;11.32;63.19;94886.16;4991297;28;20601;-49
2023/03/02 00:56:46;;;;;;;2.70;2.50;;;;;;;11.32;63.26;94878.47;4990484;28;20571;-51
2023/03/02 00:59:25;;;;;;;3.03;2.60;;;;;;;11.34;63.28;94883.44;4990589;28;20192;-51
2023/03/02 01:01:57;;;;;;;2.30;2.10;;;;;;;11.32;63.38;94875.91;4986753;28;20570;-49
2023/03/02 01:04:28;;;;;;;1.93;1.83;;;;;;;11.29;63.29;94871.06;4971555;28;20225;-49
2023/03/02 01:06:55;;;;;;;2.50;2.30;;;;;;;11.30;63.37;94868.34;4971729;28;20213;-51
2023/03/02 01:09:22;;;;;;;2.57;2.37;;;;;;;11.28;63.33;94866.88;4971669;28;20355;-49
2023/03/02 01:11:49;;;;;;;2.23;2.10;;;;;;;11.27;63.37;94860.16;4971821;28;20194;-47
2023/03/02 01:14:17;;;;;;;2.43;2.23;;;;;;;11.27;63.40;94860.16;4972070;28;20198;-50
2023/03/02 01:16:44;;;;;;;2.60;2.40;;;;;;;11.24;63.54;94858.66;4986556;28;20238;-51
2023/03/02 01:19:11;;;;;;;2.40;2.20;;;;;;;11.19;63.47;94848.03;4991274;28;20200;-50
2023/03/02 01:21:37;;;;;;;2.43;2.30;;;;;;;11.22;63.61;94854.63;4990183;28;20197;-48
2023/03/02 01:24:05;;;;;;;2.10;2.00;;;;;;;11.19;63.48;94858.28;4989408;28;20221;-55
2023/03/02 01:26:32;;;;;;;2.70;2.33;;;;;;;11.17;63.66;94857.59;4990662;28;20192;-52
2023/03/02 01:28:59;;;;;;;2.30;2.10;;;;;;;11.16;63.61;94861.09;4991080;28;20719;-50
2023/03/02 01:31:29;;;;;;;2.30;2.10;;;;;;;11.16;63.42;94860.28;4990423;28;20288;-55
2023/03/02 01:33:56;;;;;;;2.10;2.00;;;;;;;11.14;63.39;94863.00;4990841;28;20193;-49
2023/03/02 01:36:23;;;;;;;2.57;2.37;;;;;;;11.13;63.39;94861.38;4990551;28;20657;-51
2023/03/02 01:38:50;;;;;;;1.90;1.80;;;;;;;11.12;63.55;94851.28;4990538;28;20189;-50
2023/03/02 01:41:17;;;;;;;2.43;2.23;;;;;;;11.11;63.59;94849.66;4990801;28;20189;-52
2023/03/02 01:43:44;;;;;;;2.07;1.93;;;;;;;11.11;63.48;94849.66;4990187;28;20221;-51
2023/03/02 01:46:14;;;;;;;2.67;1.80;;;;;;;11.09;63.65;94854.91;4990435;28;20212;-50
2023/03/02 01:48:48;;;;;;;1.90;1.80;;;;;;;11.08;63.64;94848.19;4988682;28;20626;-51
2023/03/02 01:51:17;;;;;;;1.90;1.80;;;;;;;11.08;63.63;94855.06;4990821;28;20182;-50
2023/03/02 01:53:47;;;;;;;2.10;1.90;;;;;;;11.07;63.69;94838.09;4989918;28;20207;-47
2023/03/02 01:56:17;;;;;;;2.03;1.93;;;;;;;11.05;63.58;94839.03;4990511;28;20193;-50
2023/03/02 01:58:46;;;;;;;2.17;1.97;;;;;;;11.05;63.65;94840.75;4989804;28;20642;-50
2023/03/02 02:01:15;;;;;;;1.83;1.73;;;;;;;11.04;63.72;94841.72;4990486;28;20189;-51
2023/03/02 02:03:45;;;;;;;1.87;1.77;;;;;;;10.96;63.62;94823.69;4989964;28;20307;-52
2023/03/02 02:06:17;;;;;;;2.27;1.97;;;;;;;11.01;63.77;94837.69;4990139;28;20205;-52
2023/03/02 02:08:45;;;;;;;1.83;1.73;;;;;;;11.01;63.65;94836.88;4990290;28;20364;-52
2023/03/02 02:11:12;;;;;;;1.97;1.87;;;;;;;11.02;63.74;94838.50;4989833;28;20204;-49
2023/03/02 02:13:39;;;;;;;2.10;2.00;;;;;;;10.99;63.68;94833.66;4989412;28;20195;-51
2023/03/02 02:16:07;;;;;;;1.97;1.87;;;;;;;10.98;63.59;94832.03;4989880;28;20740;-51
2023/03/02 02:18:35;;;;;;;1.93;1.83;;;;;;;10.97;63.66;94831.22;4989507;28;20201;-51
2023/03/02 02:21:04;;;;;;;1.97;1.87;;;;;;;10.95;63.67;94840.78;4990007;28;20232;-53
2023/03/02 02:23:39;;;;;;;1.83;1.73;;;;;;;10.94;63.83;94835.81;4989940;28;20255;-49
2023/03/02 02:26:27;;;;;;;1.80;1.70;;;;;;;10.94;64.00;94839.16;4989709;28;20203;-55
2023/03/02 02:28:59;;;;;;;2.10;2.00;;;;;;;10.92;63.70;94838.50;4989304;28;20668;-52
2023/03/02 02:31:35;;;;;;;1.83;1.73;;;;;;;10.87;63.89;94835.53;4989773;28;20646;-52
2023/03/02 02:34:09;;;;;;;2.00;1.90;;;;;;;10.92;63.77;94840.25;4990066;28;20203;-56
2023/03/02 02:36:41;;;;;;;2.80;2.27;;;;;;;10.92;63.78;94835.94;4989954;28;20180;-53
2023/03/02 02:39:16;;;;;;;1.90;1.80;;;;;;;10.92;63.84;94840.25;4989874;28;20728;-52
2023/03/02 02:41:46;;;;;;;1.63;1.53;;;;;;;10.91;63.93;94828.41;4989552;28;20661;-54
2023/03/02 02:44:15;;;;;;;1.70;1.60;;;;;;;10.91;63.94;94841.19;4989405;28;20872;-51
2023/03/02 02:46:43;;;;;;;2.00;1.90;;;;;;;10.89;63.91;94837.97;4989502;28;20673;-51
2023/03/02 02:49:20;;;;;;;1.63;1.53;;;;;;;10.90;63.97;94837.81;4990036;28;20197;-51
2023/03/02 02:51:47;;;;;;;1.80;1.70;;;;;;;10.89;63.97;94832.84;4989628;28;20192;-54
2023/03/02 02:54:18;;;;;;;1.80;1.70;;;;;;;10.88;63.93;94826.09;4989556;28;20224;-54
2023/03/02 02:56:48;;;;;;;1.70;1.60;;;;;;;10.88;63.74;94829.50;4988870;28;20223;-53
2023/03/02 02:59:20;;;;;;;1.70;1.60;;;;;;;10.81;63.73;94823.28;4989813;28;20193;-52
2023/03/02 03:01:48;;;;;;;1.70;1.60;;;;;;;10.84;64.11;94833.25;4989493;28;20193;-51
2023/03/02 03:04:22;;;;;;;1.70;1.60;;;;;;;10.84;64.20;94832.44;4989955;28;20364;-55
2023/03/02 03:06:53;;;;;;;2.80;1.63;;;;;;;10.83;64.02;94833.38;4989316;28;20676;-55
2023/03/02 03:09:20;;;;;;;1.60;1.50;;;;;;;10.80;64.10;94827.59;4989931;28;20192;-54
2023/03/02 03:11:51;;;;;;;1.80;1.70;;;;;;;10.81;64.13;94825.84;4989005;28;20218;-52
2023/03/02 03:14:21;;;;;;;2.13;1.93;;;;;;;10.80;64.09;94827.59;4989460;28;20549;-54
2023/03/02 03:16:50;;;;;;;2.23;2.00;;;;;;;10.81;64.21;94828.41;4989191;28;20224;-50
2023/03/02 03:19:21;;;;;;;2.00;1.90;;;;;;;10.79;64.10;94826.00;4989519;28;20195;-52
2023/03/02 03:21:50;;;;;;;1.80;1.70;;;;;;;10.80;64.16;94824.25;4988994;28;20189;-51
2023/03/02 03:24:18;;;;;;;1.80;1.70;;;;;;;10.74;64.15;94809.41;4989717;28;20229;-50
2023/03/02 03:26:45;;;;;;;1.80;1.70;;;;;;;10.74;64.06;94812.78;4989464;28;20272;-53
2023/03/02 03:29:15;;;;;;;1.70;1.60;;;;;;;10.79;64.17;94823.44;4991493;28;20193;-50
2023/03/02 03:31:42;;;;;;;2.00;1.90;;;;;;;10.78;64.10;94824.38;4992983;28;20192;-52
2023/03/02 03:34:10;;;;;;;2.00;1.90;;;;;;;10.79;63.93;94825.16;4992598;28;20193;-49
2023/03/02 03:36:38;;;;;;;1.97;1.70;;;;;;;10.80;64.04;94825.06;4993006;28;20204;-49
2023/03/02 03:39:05;;;;;;;1.80;1.70;;;;;;;10.80;64.18;94824.25;4992964;28;20196;-48
2023/03/02 03:41:33;;;;;;;1.93;1.83;;;;;;;10.80;63.99;94824.25;4992806;28;20197;-53
2023/03/02 03:44:00;;;;;;;1.90;1.80;;;;;;;10.79;64.01;94820.88;4992332;28;20581;-50
2023/03/02 03:46:28;;;;;;;1.70;1.60;;;;;;;10.80;64.00;94826.81;4992697;28;20189;-49
2023/03/02 03:48:55;;;;;;;2.03;1.83;;;;;;;10.81;64.02;94823.28;4992686;28;20193;-49
2023/03/02 03:51:22;;;;;;;1.80;1.70;;;;;;;10.80;63.84;94822.50;4992520;28;20193;-49
2023/03/02 03:53:58;;;;;;;2.77;2.00;;;;;;;10.82;64.12;94822.34;4992367;28;20205;-51
2023/03/02 03:56:25;;;;;;;2.03;1.83;;;;;;;10.81;64.05;94820.75;4992679;28;20197;-50
2023/03/02 03:59:05;;;;;;;3.57;1.90;;;;;;;10.82;64.04;94826.66;4992505;28;20197;-49
2023/03/02 04:01:35;;;;;;;2.10;1.90;;;;;;;10.82;64.05;94830.03;4992530;28;20295;-52
2023/03/02 04:04:02;;;;;;;1.90;1.80;;;;;;;10.84;63.94;94827.31;4992128;28;20204;-52
2023/03/02 04:06:29;;;;;;;2.27;1.80;;;;;;;10.78;64.18;94818.44;4992388;28;20196;-53
2023/03/02 04:08:55;;;;;;;1.80;1.70;;;;;;;10.83;64.20;94825.72;4992151;28;20197;-54
2023/03/02 04:11:22;;;;;;;1.80;1.70;;;;;;;10.83;64.08;94826.50;4991603;28;20185;-54
2023/03/02 04:13:49;;;;;;;1.70;1.60;;;;;;;10.83;63.98;94823.16;4992120;28;20201;-53
2023/03/02 04:16:18;;;;;;;1.80;1.70;;;;;;;10.82;64.15;94816.44;4992278;28;20208;-55
2023/03/02 04:18:46;;;;;;;1.90;1.80;;;;;;;10.83;64.02;94815.47;4992010;28;20197;-55
2023/03/02 04:21:13;;;;;;;3.30;1.70;;;;;;;10.82;64.07;94822.34;4992138;28;20193;-49
2023/03/02 04:23:40;;;;;;;1.80;1.70;;;;;;;10.82;64.15;94824.91;4991979;28;20819;-52
2023/03/02 04:26:06;;;;;;;1.87;1.77;;;;;;;10.80;64.24;94822.50;4990914;28;20727;-51
2023/03/02 04:28:33;;;;;;;1.87;1.77;;;;;;;10.80;64.34;94811.47;4991837;28;20197;-52
2023/03/02 04:31:00;;;;;;;2.77;2.57;;;;;;;10.79;64.17;94820.06;4991348;28;20662;-49
2023/03/02 04:33:27;;;;;;;1.83;1.73;;;;;;;10.77;64.48;94817.63;4992278;28;20191;-52
2023/03/02 04:35:55;;;;;;;2.00;1.90;;;;;;;10.78;64.51;94821.81;4991705;28;20196;-53
2023/03/02 04:38:22;;;;;;;2.37;1.77;;;;;;;10.75;64.36;94822.09;4991917;28;20193;-50
2023/03/02 04:40:49;;;;;;;2.30;1.73;;;;;;;10.77;64.48;94827.06;4990140;28;20204;-52
2023/03/02 04:43:16;;;;;;;1.87;1.77;;;;;;;10.79;64.59;94832.84;4991837;28;20193;-51
2023/03/02 04:45:43;;;;;;;2.03;1.93;;;;;;;10.77;64.47;94833.00;4991340;28;20221;-51
2023/03/02 04:48:10;;;;;;;2.23;1.57;;;;;;;10.77;64.29;94838.09;4991690;28;20565;-52
2023/03/02 04:50:37;;;;;;;1.83;1.73;;;;;;;10.76;64.46;94836.50;4991201;28;20216;-55
2023/03/02 04:53:05;;;;;;;1.80;1.70;;;;;;;10.76;64.56;94836.50;4991645;28;20181;-49
2023/03/02 04:55:32;;;;;;;1.90;1.80;;;;;;;10.78;64.58;94839.72;4991084;28;20224;-52
2023/03/02 04:57:59;;;;;;;2.00;1.90;;;;;;;10.77;64.45;94838.09;4991623;28;20204;-51
2023/03/02 05:00:27;;;;;;;1.77;1.67;;;;;;;10.79;64.65;94849.03;4991441;28;20200;-50
2023/03/02 05:02:54;;;;;;;1.73;1.63;;;;;;;10.79;64.67;94838.78;4991503;28;20193;-51
2023/03/02 05:05:24;;;;;;;1.97;1.87;;;;;;;10.79;64.57;94843.91;4991381;28;20220;-49
2023/03/02 05:07:51;;;;;;;2.00;1.90;;;;;;;10.79;64.67;94843.91;4991092;28;20197;-50
2023/03/02 05:10:22;;;;;;;1.90;1.80;;;;;;;10.77;64.68;94840.66;4990906;28;20188;-52
2023/03/02 05:12:56;;;;;;;1.87;1.77;;;;;;;10.78;65.00;94844.03;4990956;28;20192;-49
2023/03/02 05:15:24;;;;;;;2.13;1.93;;;;;;;10.76;64.82;94838.25;4991006;28;20207;-54
2023/03/02 05:17:51;;;;;;;2.30;2.20;;;;;;;10.78;64.99;94844.81;4990908;28;20193;-50
2023/03/02 05:20:19;;;;;;;2.30;2.20;;;;;;;10.80;64.82;94840.41;4991019;28;20189;-53
2023/03/02 05:22:46;;;;;;;2.37;2.17;;;;;;;10.77;64.75;94842.41;4990780;28;20192;-53
2023/03/02 05:25:13;;;;;;;2.10;2.00;;;;;;;10.78;64.83;94836.34;4990411;28;20264;-56
2023/03/02 05:27:41;;;;;;;1.50;1.50;;;;;;;10.86;64.76;94853.59;4990110;28;20204;-50
2023/03/02 05:30:09;;;;;;;2.23;2.10;;;;;;;10.84;64.77;94847.78;4990232;28;20192;-54
2023/03/02 05:32:36;;;;;;;2.77;2.17;;;;;;;10.89;64.81;94855.88;4989759;28;20344;-50
2023/03/02 05:35:03;;;;;;;2.30;2.10;;;;;;;10.91;64.83;94856.53;4988106;28;20593;-49
2023/03/02 05:37:29;;;;;;;1.87;1.77;;;;;;;10.91;65.08;94851.44;4997488;28;20916;-51
2023/03/02 05:39:56;;;;;;;2.17;2.07;;;;;;;10.96;64.81;94856.94;4989706;28;20251;-49
2023/03/02 05:42:23;;;;;;;2.27;2.13;;;;;;;10.98;64.38;94855.06;4990442;28;20189;-51
2023/03/02 05:44:51;;;;;;;2.63;2.43;;;;;;;11.00;64.66;94855.72;4990151;28;20208;-50
2023/03/02 05:47:18;;;;;;;2.30;2.10;;;;;;;11.03;64.74;94845.22;4990160;28;20686;-51
2023/03/02 05:49:45;;;;;;;2.30;2.20;;;;;;;11.04;64.75;94857.88;4990378;28;20622;-50
2023/03/02 05:52:11;;;;;;;3.10;1.90;;;;;;;11.28;81.79;94848.97;4989489;28;20244;-48
2023/03/02 05:54:38;;;;;;;3.63;2.90;;;;;;;12.00;87.51;94856.03;4989461;28;20696;-48
2023/03/02 05:57:06;;;;;;;2.07;1.93;;;;;;;12.69;85.74;94844.38;4989802;28;20200;-53
2023/03/02 05:59:33;;;;;;;4.00;2.20;;;;;;;13.24;84.23;94840.84;4989893;28;20225;-48
2023/03/02 06:02:01;;;;;;;3.90;2.30;;;;;;;13.74;82.29;94846.13;4990158;28;20193;-51
2023/03/02 06:04:28;;;;;;;2.27;2.17;;;;;;;14.19;81.11;94845.00;4989877;28;20197;-52
2023/03/02 06:06:55;;;;;;;3.00;2.20;;;;;;;14.48;80.29;94846.38;4989297;28;20246;-51
2023/03/02 06:09:22;;;;;;;1.80;1.70;;;;;;;14.71;78.64;94859.47;4989243;28;20286;-53
2023/03/02 06:11:49;;;;;;;2.20;2.00;;;;;;;14.66;76.72;94867.69;4989683;28;20236;-51
2023/03/02 06:14:15;;;;;;;5.10;2.33;;;;;;;14.50;75.00;94865.06;4989737;28;20200;-48
2023/03/02 06:16:42;;;;;;;3.47;2.00;;;;;;;14.39;73.96;94873.06;4989842;28;20196;-48
2023/03/02 06:19:10;;;;;;;2.33;2.20;;;;;;;14.22;73.38;94867.88;4990059;28;20197;-50
2023/03/02 06:21:37;;;;;;;3.00;2.13;;;;;;;14.08;72.91;94872.81;4989141;28;20212;-53
2023/03/02 06:24:04;;;;;;;4.40;2.30;;;;;;;13.93;72.43;94875.13;4988928;28;20201;-52
2023/03/02 06:26:31;;;;;;;11.63;2.03;;;;;;;13.78;71.80;94880.84;4988793;28;20707;-50
2023/03/02 06:28:57;;;;;;;2.93;2.10;;;;;;;13.65;71.50;94883.03;4989798;28;20255;-49
2023/03/02 06:31:24;;;;;;;2.33;2.10;;;;;;;13.52;70.81;94882.63;4988711;28;20666;-54
2023/03/02 06:33:51;;;;;;;2.73;2.13;;;;;;;13.29;70.79;94867.69;4998492;28;20192;-48
2023/03/02 06:36:19;;;;;;;2.93;2.60;;;;;;;13.33;70.45;94891.31;5009170;28;20191;-51
2023/03/02 06:38:46;;;;;;;2.93;2.40;;;;;;;13.22;70.18;94883.81;4993895;28;20201;-51
2023/03/02 06:41:13;;;;;;;2.57;2.37;;;;;;;13.14;69.83;94879.44;4988677;28;20530;-52
2023/03/02 06:43:39;;;;;;;2.37;2.17;;;;;;;13.07;69.57;94886.09;4989421;28;20984;-50
2023/03/02 06:46:06;;;;;;;3.03;2.73;;;;;;;12.99;69.21;94876.56;4989491;28;20239;-50
2023/03/02 06:48:33;;;;;;;5.17;2.60;;;;;;;12.95;68.98;94879.56;4988919;28;20197;-48
2023/03/02 06:51:00;;;;;;;2.53;2.33;;;;;;;12.88;68.98;94881.13;4988217;28;20316;-49
2023/03/02 06:53:28;;;;;;;6.70;2.70;;;;;;;12.82;68.44;94879.94;4989256;28;20185;-49
2023/03/02 06:55:55;;;;;;;4.43;2.87;;;;;;;12.77;68.42;94879.59;4989147;28;20608;-51
2023/03/02 06:58:22;;;;;;;4.40;2.53;;;;;;;12.72;68.19;94879.22;4988755;28;20276;-48
2023/03/02 07:00:49;;;;;;;3.30;3.00;;;;;;;12.69;68.20;94879.50;4989721;28;20200;-50
2023/03/02 07:03:16;;;;;;;2.60;2.40;;;;;;;12.68;68.07;94877.88;4989936;28;20200;-47
2023/03/02 07:05:43;;;;;;;3.50;2.87;;;;;;;12.66;67.98;94879.81;4992914;28;20232;-49
2023/03/02 07:08:09;;;;;;;4.33;2.60;;;;;;;12.65;67.62;94883.31;4992942;28;20192;-55
2023/03/02 07:10:38;;;;;;;4.40;2.90;;;;;;;12.63;67.72;94880.09;4992861;28;20185;-48
2023/03/02 07:13:05;;;;;;;4.93;2.87;;;;;;;12.61;67.41;94872.56;4990875;28;20204;-49
2023/03/02 07:15:31;;;;;;;3.20;2.90;;;;;;;12.62;67.54;94883.63;4994288;28;20219;-49
2023/03/02 07:17:58;;;;;;;5.60;2.97;;;;;;;12.60;67.04;94885.50;4991832;28;20251;-49
2023/03/02 07:20:25;;;;;;;3.83;3.17;;;;;;;12.60;67.20;94886.31;4992079;28;20193;-49
2023/03/02 07:22:52;;;;;;;4.40;3.23;;;;;;;12.60;67.01;94880.38;4992131;28;20197;-49
2023/03/02 07:25:19;;;;;;;3.00;2.80;;;;;;;12.61;66.97;94879.41;4991956;28;20287;-48
2023/03/02 07:27:48;;;;;;;3.27;2.97;;;;;;;12.61;66.63;94881.97;4991970;28;20197;-50
2023/03/02 07:30:19;;;;;;;3.23;2.93;;;;;;;12.62;66.51;94881.84;4992461;28;20185;-47
2023/03/02 07:32:46;;;;;;;3.20;2.90;;;;;;;12.64;66.41;94889.41;4992548;28;20632;-47
2023/03/02 07:35:13;;;;;;;3.70;3.10;;;;;;;12.66;66.41;94890.88;4992092;28;20283;-50
2023/03/02 07:37:40;;;;;;;3.90;3.10;;;;;;;12.67;66.10;94889.13;4991856;28;20188;-49
2023/03/02 07:40:09;;;;;;;3.20;3.00;;;;;;;12.68;66.01;94881.25;4991856;28;20208;-49
2023/03/02 07:42:37;;;;;;;3.80;3.50;;;;;;;12.66;65.89;94879.81;4991575;28;20189;-49
2023/03/02 07:45:06;;;;;;;3.50;3.20;;;;;;;12.72;65.65;94892.84;4989810;28;20196;-47
2023/03/02 07:47:33;;;;;;;3.70;3.40;;;;;;;12.77;65.72;94889.84;4989718;28;20220;-49
2023/03/02 07:50:00;;;;;;;5.63;3.23;;;;;;;12.78;65.29;94889.72;4991754;28;20204;-49
2023/03/02 07:52:29;;;;;;;3.73;3.43;;;;;;;12.80;65.38;94889.56;4992042;28;20197;-48
2023/03/02 07:54:56;;;;;;;3.50;3.20;;;;;;;12.80;65.24;94887.00;4989041;28;20681;-49
2023/03/02 07:57:23;;;;;;;3.40;3.10;;;;;;;12.81;65.09;94894.53;4988773;28;20590;-48
2023/03/02 07:59:50;;;;;;;3.57;3.27;;;;;;;12.77;64.90;94888.09;4991652;28;20259;-50
2023/03/02 08:02:19;;;;;;;3.97;3.57;;;;;;;12.77;64.93;94884.72;4991258;28;20259;-48
2023/03/02 08:04:46;;;;;;;3.60;3.30;;;;;;;12.77;64.74;94877.81;4991056;28;20231;-47
2023/03/02 08:07:13;;;;;;;3.30;3.10;;;;;;;12.78;64.67;94884.59;4991162;28;20244;-49
2023/03/02 08:09:40;;;;;;;3.37;3.07;;;;;;;12.80;64.73;94885.22;4990912;28;20570;-50
2023/03/02 08:12:06;;;;;;;4.13;3.00;;;;;;;12.83;64.54;94880.78;4990577;28;20208;-47
2023/03/02 08:14:33;;;;;;;3.97;3.63;;;;;;;12.85;64.62;94884.00;4991220;28;20219;-49
2023/03/02 08:17:01;;;;;;;3.83;3.50;;;;;;;12.87;64.47;94877.75;4991051;28;20189;-47
2023/03/02 08:19:29;;;;;;;4.30;3.90;;;;;;;12.92;64.37;94877.31;4988984;28;20213;-49
2023/03/02 08:21:56;;;;;;;3.60;3.23;;;;;;;12.93;64.18;94871.22;4988411;28;20646;-48
2023/03/02 08:24:22;;;;;;;4.80;3.33;;;;;;;12.96;64.01;94873.50;4991127;28;20208;-48
2023/03/02 08:26:49;;;;;;;3.57;3.27;;;;;;;12.98;63.98;94866.44;4991178;28;20239;-47
2023/03/02 08:29:16;;;;;;;5.73;3.60;;;;;;;13.02;64.10;94866.00;4990809;28;20662;-48
2023/03/02 08:31:43;;;;;;;3.97;3.50;;;;;;;13.08;63.96;94864.59;4987811;28;20200;-51
2023/03/02 08:34:10;;;;;;;3.67;3.37;;;;;;;13.14;63.70;94876.84;4991307;28;20188;-47
2023/03/02 08:36:39;;;;;;;4.33;3.87;;;;;;;13.21;63.42;94859.91;4990844;28;20818;-48
2023/03/02 08:39:05;;;;;;;4.63;3.10;;;;;;;13.29;63.52;94867.69;4990651;28;20185;-48
2023/03/02 08:41:33;;;;;;;4.10;3.70;;;;;;;13.37;63.35;94873.84;4989521;28;20273;-48
2023/03/02 08:44:00;;;;;;;4.80;3.60;;;;;;;13.43;63.24;94866.34;4990770;28;20767;-48
2023/03/02 08:46:27;;;;;;;3.83;3.07;;;;;;;13.49;63.08;94863.16;4990613;28;20220;-52
2023/03/02 08:48:53;;;;;;;4.00;3.63;;;;;;;13.55;63.02;94865.13;4990974;28;20580;-47
2023/03/02 08:51:22;;;;;;;3.47;3.17;;;;;;;13.60;62.84;94864.69;4990668;28;20603;-53
2023/03/02 08:53:53;;;;;;;3.90;3.47;;;;;;;13.68;62.75;94869.84;4990261;28;20200;-50
2023/03/02 08:56:22;;;;;;;3.60;3.30;;;;;;;13.74;62.57;94869.25;4990278;28;20204;-48
2023/03/02 08:58:50;;;;;;;3.53;3.23;;;;;;;13.79;62.63;94877.31;4990389;28;20197;-49
2023/03/02 09:01:19;;;;;;;6.00;3.43;;;;;;;13.84;62.63;94858.06;4990181;28;20194;-49
2023/03/02 09:03:46;;;;;;;3.77;3.47;;;;;;;13.91;62.38;94857.28;4990367;28;20208;-50
2023/03/02 09:06:13;;;;;;;3.80;3.50;;;;;;;13.99;62.26;94851.38;4990106;28;20240;-48
2023/03/02 09:08:40;;;;;;;4.70;3.60;;;;;;;13.92;61.99;94835.75;4990467;28;20200;-48
2023/03/02 09:11:08;;;;;;;3.50;3.20;;;;;;;14.14;61.88;94854.16;4990353;28;20204;-47
2023/03/02 09:13:35;;;;;;;4.27;3.97;;;;;;;14.23;61.70;94855.81;4989696;28;20205;-49
2023/03/02 09:16:02;;;;;;;3.60;3.30;;;;;;;14.30;61.67;94855.03;4990144;28;20673;-48
2023/03/02 09:18:30;;;;;;;4.37;3.70;;;;;;;14.39;61.36;94860.19;4989784;28;20699;-48
2023/03/02 09:20:58;;;;;;;3.90;3.50;;;;;;;14.45;61.49;94854.41;4986752;28;20189;-50
2023/03/02 09:23:26;;;;;;;4.20;2.57;;;;;;;14.87;76.62;94845.84;4990000;28;20185;-51
2023/03/02 09:25:54;;;;;;;3.87;2.73;;;;;;;15.40;78.12;94835.00;4989164;28;20233;-50
2023/03/02 09:28:22;;;;;;;3.40;3.10;;;;;;;15.98;75.69;94851.19;4987018;28;20196;-49
2023/03/02 09:30:50;;;;;;;3.60;3.30;;;;;;;16.21;73.27;94846.09;4988138;28;20285;-51
2023/03/02 09:33:17;;;;;;;3.87;3.07;;;;;;;16.29;71.57;94849.44;4986925;28;20197;-49
2023/03/02 09:35:44;;;;;;;4.10;3.03;;;;;;;16.34;70.23;94848.13;4989929;28;20224;-55
2023/03/02 09:38:14;;;;;;;4.57;3.27;;;;;;;16.36;69.11;94841.81;4989595;28;20680;-49
2023/03/02 09:40:54;;;;;;;3.40;3.10;;;;;;;16.38;68.24;94845.03;4989656;28;20201;-52
2023/03/02 09:43:38;;;;;;;5.07;3.00;;;;;;;16.39;67.38;94844.06;4988810;28;20197;-48
2023/03/02 09:46:15;;;;;;;3.30;3.00;;;;;;;16.40;66.67;94839.69;4989345;28;20217;-50
2023/03/02 09:48:52;;;;;;;4.97;4.00;;;;;;;16.41;65.89;94846.47;4987713;28;20735;-51
2023/03/02 09:51:31;;;;;;;4.17;3.70;;;;;;;16.38;65.32;94845.03;4989239;28;20208;-49
2023/03/02 09:54:04;;;;;;;4.07;3.53;;;;;;;16.36;64.66;94844.38;4989030;28;20200;-48
2023/03/02 09:56:33;;;;;;;4.03;3.60;;;;;;;16.32;64.39;94845.72;4988066;28;20208;-49
2023/03/02 09:59:06;;;;;;;4.20;3.33;;;;;;;16.25;63.84;94845.56;4989082;28;20775;-50
2023/03/02 10:01:39;;;;;;;3.30;3.10;;;;;;;16.21;63.48;94844.31;4989061;28;20591;-50
2023/03/02 10:04:14;;;;;;;3.50;3.20;;;;;;;16.15;63.15;94844.16;4987011;28;20289;-54
2023/03/02 10:06:41;;;;;;;4.70;3.60;;;;;;;16.11;62.92;94848.06;4988207;28;20729;-50
2023/03/02 10:09:10;;;;;;;3.60;3.30;;;;;;;16.05;62.82;94854.69;4988928;28;20204;-50
2023/03/02 10:11:47;;;;;;;3.27;3.03;;;;;;;16.00;62.59;94850.03;4989447;28;20275;-52
2023/03/02 10:14:23;;;;;;;4.80;3.43;;;;;;;15.95;62.44;94852.31;4989404;28;20200;-49
2023/03/02 10:16:58;;;;;;;4.40;2.97;;;;;;;15.91;62.11;94861.34;4984594;28;20185;-50
2023/03/02 10:19:31;;;;;;;4.50;3.37;;;;;;;15.85;61.97;94861.22;4989409;28;20188;-48
2023/03/02 10:22:03;;;;;;;4.57;3.30;;;;;;;15.80;61.76;94856.53;4988932;28;20193;-52
2023/03/02 10:24:35;;;;;;;3.73;3.40;;;;;;;15.76;61.80;94858.66;4989247;28;20192;-49
2023/03/02 10:27:16;;;;;;;4.07;3.70;;;;;;;15.71;61.54;94860.09;4989022;28;20267;-48
2023/03/02 10:29:59;;;;;;;3.77;3.43;;;;;;;15.62;61.64;94851.56;4986857;28;20204;-47
2023/03/02 10:32:29;;;;;;;4.17;3.37;;;;;;;15.52;61.41;94851.75;4988483;28;20212;-48
2023/03/02 10:34:58;;;;;;;6.23;3.70;;;;;;;15.44;61.40;94849.19;4988758;28;20197;-49
2023/03/02 10:37:30;;;;;;;3.90;3.60;;;;;;;15.37;61.22;94853.41;4988874;28;20205;-48
2023/03/02 10:39:58;;;;;;;3.50;3.10;;;;;;;15.29;61.17;94849.06;4988950;28;20193;-50
2023/03/02 10:42:30;;;;;;;3.97;3.43;;;;;;;15.22;61.29;94839.53;4987956;28;20189;-51
2023/03/02 10:45:06;;;;;;;3.40;3.10;;;;;;;15.09;61.24;94836.66;4989076;28;20593;-49
2023/03/02 10:47:32;;;;;;;3.60;3.17;;;;;;;15.06;61.34;94841.16;4987633;28;20217;-49
2023/03/02 10:49:59;;;;;;;3.90;3.53;;;;;;;15.03;61.23;94845.84;4988911;28;20200;-49
2023/03/02 10:52:28;;;;;;;3.27;2.97;;;;;;;14.97;61.14;94841.31;4988645;28;20216;-51
2023/03/02 10:55:03;;;;;;;4.10;3.70;;;;;;;14.92;61.07;94838.44;4988581;28;20228;-50
2023/03/02 10:57:35;;;;;;;3.87;3.53;;;;;;;14.89;60.87;94829.25;4988549;28;20204;-48
2023/03/02 11:00:06;;;;;;;4.27;3.87;;;;;;;14.91;60.64;94835.06;4988331;28;20224;-52
2023/03/02 11:02:36;;;;;;;4.00;3.60;;;;;;;14.92;60.57;94834.06;4989044;28;20611;-50
2023/03/02 11:05:27;;;;;;;3.70;3.40;;;;;;;14.93;60.66;94827.97;4988812;28;20227;-50
2023/03/02 11:07:56;;;;;;;3.23;2.93;;;;;;;14.95;60.49;94822.66;4988312;28;20260;-48
2023/03/02 11:10:25;;;;;;;3.70;3.40;;;;;;;14.92;60.38;94810.09;4988396;28;20550;-51
2023/03/02 11:12:53;;;;;;;3.40;3.10;;;;;;;14.97;60.32;94808.63;4987686;28;20677;-51
2023/03/02 11:15:25;;;;;;;3.63;3.33;;;;;;;14.99;60.19;94806.72;4988697;28;20205;-49
2023/03/02 11:18:00;;;;;;;3.23;3.03;;;;;;;14.98;60.13;94799.97;4988504;28;20235;-47
2023/03/02 11:20:33;;;;;;;3.60;3.30;;;;;;;14.99;59.96;94805.91;4988150;28;20296;-50
2023/03/02 11:23:17;;;;;;;3.43;3.07;;;;;;;15.00;59.91;94797.22;4988173;28;20252;-50
2023/03/02 11:25:48;;;;;;;3.37;3.07;;;;;;;15.02;59.74;94808.16;4988720;28;20213;-49
2023/03/02 11:28:26;;;;;;;3.87;3.07;;;;;;;15.02;59.74;94805.59;4988321;28;20224;-49
2023/03/02 11:30:57;;;;;;;3.50;3.27;;;;;;;15.02;59.67;94797.84;4988734;28;20200;-50
2023/03/02 11:33:29;;;;;;;3.47;3.17;;;;;;;15.03;59.67;94804.63;4988364;28;20193;-48
2023/03/02 11:36:03;;;;;;;3.90;3.57;;;;;;;15.00;59.33;94798.03;4988345;28;20229;-49
2023/03/02 11:38:36;;;;;;;4.37;3.40;;;;;;;14.99;59.15;94793.84;4988410;28;20204;-49
2023/03/02 11:41:12;;;;;;;3.70;3.00;;;;;;;14.99;58.96;94793.84;4983469;28;20211;-49